North Salem, New York
Current Conditions -  °F | °C
As of 2:53 AM on Sunday 23 Nov 2014 (Local Time) from KDXR Reporting Station
Scattered Clouds Scattered Clouds  
Wind Chill: 40°   Ceiling: Unl
Heat Index: 40°   Visibility: 10mi
Dew Point: 18°   Wind: 3mph
Humidity: 41%   Direction: 310°NW
Pressure: 30.16"   Gusts: NA
Location:  41.33°N, 73.57°W
Report Text: KDXR 230753Z AUTO 31003KT 10SM SCT110 04/M08 A3016 RMK AO2 SLP213 T00441078
Loading
Personal Weather Stations






























Interactive Weather Map New forecast layout! Learn more

10-Day Weather Forecast

Advertisements
Track Severe Weather on mobile